sensor_id;sensor_type;location;lat;lon;timestamp;pressure;altitude;pressure_sealevel;temperature;humidity
33151;BME280;19508;42.578;23.416;2023-08-06T00:00:09;92628.25;;;20.02;82.98
33151;BME280;19508;42.578;23.416;2023-08-06T00:02:36;92644.75;;;20.05;82.84
33151;BME280;19508;42.578;23.416;2023-08-06T00:05:02;92618.22;;;19.93;84.00
33151;BME280;19508;42.578;23.416;2023-08-06T00:07:28;92619.78;;;19.82;85.19
33151;BME280;19508;42.578;23.416;2023-08-06T00:10:01;92615.47;;;19.81;85.35
33151;BME280;19508;42.578;23.416;2023-08-06T00:12:27;92605.94;;;19.75;84.66
33151;BME280;19508;42.578;23.416;2023-08-06T00:15:33;92603.06;;;19.71;86.20
33151;BME280;19508;42.578;23.416;2023-08-06T00:18:39;92597.94;;;19.58;87.32
33151;BME280;19508;42.578;23.416;2023-08-06T00:22:13;92582.66;;;19.57;87.01
33151;BME280;19508;42.578;23.416;2023-08-06T00:25:08;92598.75;;;19.37;89.46
33151;BME280;19508;42.578;23.416;2023-08-06T00:28:37;92597.31;;;19.40;90.50
33151;BME280;19508;42.578;23.416;2023-08-06T00:31:22;92584.19;;;19.33;89.99
33151;BME280;19508;42.578;23.416;2023-08-06T00:34:10;92581.94;;;19.48;90.55
33151;BME280;19508;42.578;23.416;2023-08-06T00:36:37;92582.19;;;19.55;90.19
33151;BME280;19508;42.578;23.416;2023-08-06T00:39:06;92575.81;;;19.51;90.31
33151;BME280;19508;42.578;23.416;2023-08-06T00:41:47;92584.59;;;19.56;90.63
33151;BME280;19508;42.578;23.416;2023-08-06T00:44:33;92573.38;;;19.58;90.71
33151;BME280;19508;42.578;23.416;2023-08-06T00:47:09;92558.34;;;19.64;90.86
33151;BME280;19508;42.578;23.416;2023-08-06T00:50:23;92568.81;;;19.62;92.07
33151;BME280;19508;42.578;23.416;2023-08-06T00:53:29;92569.72;;;19.78;91.47
33151;BME280;19508;42.578;23.416;2023-08-06T00:56:17;92567.22;;;19.73;91.34
33151;BME280;19508;42.578;23.416;2023-08-06T00:58:44;92564.84;;;19.71;91.03
33151;BME280;19508;42.578;23.416;2023-08-06T01:01:18;92556.78;;;19.75;91.31
33151;BME280;19508;42.578;23.416;2023-08-06T01:04:18;92555.16;;;19.86;90.69
33151;BME280;19508;42.578;23.416;2023-08-06T01:13:53;92506.00;;;19.86;91.80
33151;BME280;19508;42.578;23.416;2023-08-06T01:16:33;92516.94;;;19.86;91.96
33151;BME280;19508;42.578;23.416;2023-08-06T01:19:39;92528.63;;;19.99;91.38
33151;BME280;19508;42.578;23.416;2023-08-06T01:22:07;92524.44;;;19.77;92.86
33151;BME280;19508;42.578;23.416;2023-08-06T01:24:36;92507.03;;;19.82;92.28
33151;BME280;19508;42.578;23.416;2023-08-06T01:27:49;92500.53;;;20.11;89.59
33151;BME280;19508;42.578;23.416;2023-08-06T01:30:46;92510.88;;;20.05;89.53
33151;BME280;19508;42.578;23.416;2023-08-06T01:33:21;92523.09;;;19.83;91.78
33151;BME280;19508;42.578;23.416;2023-08-06T01:36:11;92524.91;;;19.91;92.20
33151;BME280;19508;42.578;23.416;2023-08-06T01:38:40;92519.19;;;19.96;92.01
33151;BME280;19508;42.578;23.416;2023-08-06T01:41:10;92511.38;;;19.83;92.19
33151;BME280;19508;42.578;23.416;2023-08-06T01:44:10;92507.25;;;19.89;92.11
33151;BME280;19508;42.578;23.416;2023-08-06T01:46:58;92500.56;;;19.86;91.35
33151;BME280;19508;42.578;23.416;2023-08-06T01:49:25;92501.00;;;19.88;92.33
33151;BME280;19508;42.578;23.416;2023-08-06T01:52:05;92502.50;;;19.86;92.66
33151;BME280;19508;42.578;23.416;2023-08-06T01:55:23;92500.06;;;19.96;92.41
33151;BME280;19508;42.578;23.416;2023-08-06T01:57:49;92488.47;;;19.87;91.99
33151;BME280;19508;42.578;23.416;2023-08-06T02:00:38;92504.75;;;19.96;91.98
33151;BME280;19508;42.578;23.416;2023-08-06T02:03:08;92489.50;;;19.95;91.98
33151;BME280;19508;42.578;23.416;2023-08-06T02:05:35;92495.06;;;20.11;91.07
33151;BME280;19508;42.578;23.416;2023-08-06T02:08:16;92500.88;;;19.97;91.63
33151;BME280;19508;42.578;23.416;2023-08-06T02:10:45;92508.94;;;20.06;91.00
33151;BME280;19508;42.578;23.416;2023-08-06T02:13:33;92502.47;;;20.10;90.43
33151;BME280;19508;42.578;23.416;2023-08-06T02:16:23;92504.16;;;20.15;90.27
33151;BME280;19508;42.578;23.416;2023-08-06T02:19:05;92477.97;;;20.14;90.93
33151;BME280;19508;42.578;23.416;2023-08-06T02:21:42;92493.13;;;19.99;91.94
33151;BME280;19508;42.578;23.416;2023-08-06T02:24:13;92499.72;;;20.10;90.38
33151;BME280;19508;42.578;23.416;2023-08-06T02:26:48;92499.94;;;20.05;90.50
33151;BME280;19508;42.578;23.416;2023-08-06T02:29:24;92509.16;;;20.13;90.44
33151;BME280;19508;42.578;23.416;2023-08-06T02:31:55;92517.22;;;20.21;90.20
33151;BME280;19508;42.578;23.416;2023-08-06T02:34:30;92514.84;;;20.08;91.40
33151;BME280;19508;42.578;23.416;2023-08-06T02:37:08;92529.66;;;20.19;90.61
33151;BME280;19508;42.578;23.416;2023-08-06T02:40:04;92529.66;;;20.19;91.24
33151;BME280;19508;42.578;23.416;2023-08-06T02:42:35;92521.47;;;20.07;91.79
33151;BME280;19508;42.578;23.416;2023-08-06T02:45:16;92531.25;;;20.20;90.87
33151;BME280;19508;42.578;23.416;2023-08-06T02:47:46;92531.47;;;20.27;90.99
33151;BME280;19508;42.578;23.416;2023-08-06T02:50:13;92525.09;;;20.23;91.18
33151;BME280;19508;42.578;23.416;2023-08-06T02:52:42;92511.00;;;20.09;91.31
33151;BME280;19508;42.578;23.416;2023-08-06T02:55:28;92511.69;;;19.93;92.92
33151;BME280;19508;42.578;23.416;2023-08-06T02:58:00;92513.06;;;19.87;93.38
33151;BME280;19508;42.578;23.416;2023-08-06T03:01:04;92505.09;;;19.94;94.33
33151;BME280;19508;42.578;23.416;2023-08-06T03:03:36;92494.88;;;19.79;93.72
33151;BME280;19508;42.578;23.416;2023-08-06T03:06:02;92509.97;;;19.89;93.82
33151;BME280;19508;42.578;23.416;2023-08-06T03:08:37;92510.91;;;19.81;94.36
33151;BME280;19508;42.578;23.416;2023-08-06T03:11:04;92503.97;;;19.59;97.75
33151;BME280;19508;42.578;23.416;2023-08-06T03:13:30;92493.56;;;19.28;100.00
33151;BME280;19508;42.578;23.416;2023-08-06T03:15:57;92497.31;;;19.35;100.00
33151;BME280;19508;42.578;23.416;2023-08-06T03:18:23;92478.00;;;19.40;99.96
33151;BME280;19508;42.578;23.416;2023-08-06T03:20:48;92469.13;;;19.43;100.00
33151;BME280;19508;42.578;23.416;2023-08-06T03:23:14;92487.34;;;19.52;100.00
33151;BME280;19508;42.578;23.416;2023-08-06T03:25:39;92478.44;;;19.55;100.00
33151;BME280;19508;42.578;23.416;2023-08-06T03:28:04;92488.03;;;19.61;99.88
33151;BME280;19508;42.578;23.416;2023-08-06T03:30:30;92504.88;;;19.63;99.99
33151;BME280;19508;42.578;23.416;2023-08-06T03:32:56;92513.19;;;19.66;99.99
33151;BME280;19508;42.578;23.416;2023-08-06T03:35:21;92518.84;;;19.73;99.91
33151;BME280;19508;42.578;23.416;2023-08-06T03:37:47;92523.72;;;19.56;100.00
33151;BME280;19508;42.578;23.416;2023-08-06T03:40:14;92528.13;;;19.36;100.00
33151;BME280;19508;42.578;23.416;2023-08-06T03:42:40;92542.81;;;19.43;100.00
33151;BME280;19508;42.578;23.416;2023-08-06T03:45:08;92530.06;;;19.48;100.00
33151;BME280;19508;42.578;23.416;2023-08-06T03:47:41;92511.22;;;19.55;100.00
33151;BME280;19508;42.578;23.416;2023-08-06T03:50:27;92539.00;;;19.69;99.88
33151;BME280;19508;42.578;23.416;2023-08-06T03:52:53;92539.19;;;19.52;100.00
33151;BME280;19508;42.578;23.416;2023-08-06T03:55:20;92557.06;;;19.49;100.00
33151;BME280;19508;42.578;23.416;2023-08-06T03:58:18;92576.63;;;19.51;100.00
33151;BME280;19508;42.578;23.416;2023-08-06T04:00:46;92569.44;;;19.47;100.00
33151;BME280;19508;42.578;23.416;2023-08-06T04:03:11;92542.38;;;19.54;99.61
33151;BME280;19508;42.578;23.416;2023-08-06T04:05:37;92540.59;;;19.58;99.77
33151;BME280;19508;42.578;23.416;2023-08-06T04:08:06;92532.06;;;19.59;99.08
33151;BME280;19508;42.578;23.416;2023-08-06T04:10:42;92530.66;;;19.53;100.00
33151;BME280;19508;42.578;23.416;2023-08-06T04:13:09;92535.31;;;19.53;100.00
33151;BME280;19508;42.578;23.416;2023-08-06T04:15:35;92528.38;;;19.55;100.00
33151;BME280;19508;42.578;23.416;2023-08-06T04:18:04;92533.56;;;19.69;99.97
33151;BME280;19508;42.578;23.416;2023-08-06T04:20:54;92531.50;;;19.78;99.27
33151;BME280;19508;42.578;23.416;2023-08-06T04:23:37;92522.31;;;19.83;99.62
33151;BME280;19508;42.578;23.416;2023-08-06T04:26:49;92513.88;;;19.76;100.00
33151;BME280;19508;42.578;23.416;2023-08-06T04:29:36;92516.13;;;19.61;100.00
33151;BME280;19508;42.578;23.416;2023-08-06T04:32:10;92501.59;;;19.57;100.00
33151;BME280;19508;42.578;23.416;2023-08-06T04:34:55;92497.13;;;19.65;99.54
33151;BME280;19508;42.578;23.416;2023-08-06T04:37:22;92487.84;;;19.66;98.62
33151;BME280;19508;42.578;23.416;2023-08-06T04:40:20;92475.31;;;19.77;99.13
33151;BME280;19508;42.578;23.416;2023-08-06T04:43:06;92479.41;;;19.83;98.90
33151;BME280;19508;42.578;23.416;2023-08-06T04:45:37;92476.06;;;19.90;98.70
33151;BME280;19508;42.578;23.416;2023-08-06T04:48:45;92470.03;;;19.96;99.16
33151;BME280;19508;42.578;23.416;2023-08-06T04:51:44;92476.72;;;19.99;99.73
33151;BME280;19508;42.578;23.416;2023-08-06T04:54:24;92464.78;;;20.04;98.96
33151;BME280;19508;42.578;23.416;2023-08-06T04:57:01;92454.09;;;19.98;98.81
33151;BME280;19508;42.578;23.416;2023-08-06T04:59:55;92453.81;;;20.16;98.13
33151;BME280;19508;42.578;23.416;2023-08-06T05:02:22;92460.34;;;20.11;98.22
33151;BME280;19508;42.578;23.416;2023-08-06T05:05:01;92435.41;;;20.13;98.86
33151;BME280;19508;42.578;23.416;2023-08-06T05:07:31;92452.88;;;20.64;98.60
33151;BME280;19508;42.578;23.416;2023-08-06T05:10:00;92453.88;;;21.16;95.92
33151;BME280;19508;42.578;23.416;2023-08-06T05:28:07;92474.78;;;21.24;92.51
33151;BME280;19508;42.578;23.416;2023-08-06T05:30:32;92479.38;;;20.76;94.47
33151;BME280;19508;42.578;23.416;2023-08-06T05:32:58;92465.41;;;20.65;95.47
33151;BME280;19508;42.578;23.416;2023-08-06T05:35:23;92466.44;;;20.89;94.18
33151;BME280;19508;42.578;23.416;2023-08-06T05:37:53;92469.47;;;20.99;93.75
33151;BME280;19508;42.578;23.416;2023-08-06T05:40:18;92468.28;;;20.84;94.80
33151;BME280;19508;42.578;23.416;2023-08-06T05:42:44;92475.06;;;21.03;95.12
33151;BME280;19508;42.578;23.416;2023-08-06T05:45:09;92449.97;;;21.01;92.97
33151;BME280;19508;42.578;23.416;2023-08-06T05:47:35;92463.66;;;21.17;92.03
33151;BME280;19508;42.578;23.416;2023-08-06T05:50:02;92460.44;;;21.27;91.35
33151;BME280;19508;42.578;23.416;2023-08-06T05:52:29;92460.44;;;21.27;90.30
33151;BME280;19508;42.578;23.416;2023-08-06T05:54:55;92453.16;;;21.19;90.00
33151;BME280;19508;42.578;23.416;2023-08-06T05:57:20;92463.66;;;21.17;91.09
33151;BME280;19508;42.578;23.416;2023-08-06T05:59:46;92466.03;;;21.18;90.29
33151;BME280;19508;42.578;23.416;2023-08-06T06:02:11;92472.03;;;21.08;91.82
33151;BME280;19508;42.578;23.416;2023-08-06T06:04:37;92485.38;;;21.09;91.71
33151;BME280;19508;42.578;23.416;2023-08-06T06:07:03;92494.19;;;21.19;91.44
33151;BME280;19508;42.578;23.416;2023-08-06T06:09:28;92487.13;;;21.02;91.82
33151;BME280;19508;42.578;23.416;2023-08-06T06:11:54;92507.66;;;21.24;90.45
33151;BME280;19508;42.578;23.416;2023-08-06T06:14:19;92506.22;;;21.14;91.26
33151;BME280;19508;42.578;23.416;2023-08-06T06:16:45;92519.59;;;21.31;91.48
33151;BME280;19508;42.578;23.416;2023-08-06T06:19:12;92507.16;;;21.34;91.49
33151;BME280;19508;42.578;23.416;2023-08-06T06:21:38;92530.47;;;21.59;91.98
33151;BME280;19508;42.578;23.416;2023-08-06T06:24:05;92519.59;;;21.79;90.33
33151;BME280;19508;42.578;23.416;2023-08-06T06:26:31;92518.91;;;21.82;88.93
33151;BME280;19508;42.578;23.416;2023-08-06T06:28:57;92527.50;;;21.64;90.44
33151;BME280;19508;42.578;23.416;2023-08-06T06:31:23;92531.28;;;21.60;90.87
33151;BME280;19508;42.578;23.416;2023-08-06T06:33:49;92537.91;;;21.75;91.33
33151;BME280;19508;42.578;23.416;2023-08-06T06:36:15;92533.41;;;21.82;89.80
33151;BME280;19508;42.578;23.416;2023-08-06T06:38:40;92541.44;;;21.91;88.95
33151;BME280;19508;42.578;23.416;2023-08-06T06:41:06;92526.31;;;22.13;88.00
33151;BME280;19508;42.578;23.416;2023-08-06T06:43:32;92535.59;;;22.59;86.46
33151;BME280;19508;42.578;23.416;2023-08-06T06:45:59;92547.94;;;23.46;80.81
33151;BME280;19508;42.578;23.416;2023-08-06T06:48:29;92544.88;;;23.94;78.60
33151;BME280;19508;42.578;23.416;2023-08-06T06:50:55;92563.19;;;24.09;78.10
33151;BME280;19508;42.578;23.416;2023-08-06T06:53:21;92559.78;;;23.92;77.07
33151;BME280;19508;42.578;23.416;2023-08-06T06:55:55;92565.84;;;23.79;78.23
33151;BME280;19508;42.578;23.416;2023-08-06T06:58:21;92569.47;;;24.09;75.73
33151;BME280;19508;42.578;23.416;2023-08-06T07:00:49;92553.63;;;23.57;75.64
33151;BME280;19508;42.578;23.416;2023-08-06T07:03:15;92558.59;;;22.90;78.00
33151;BME280;19508;42.578;23.416;2023-08-06T07:05:42;92554.28;;;23.08;77.67
33151;BME280;19508;42.578;23.416;2023-08-06T07:08:07;92588.25;;;22.84;78.58
33151;BME280;19508;42.578;23.416;2023-08-06T07:10:33;92575.72;;;22.48;81.74
33151;BME280;19508;42.578;23.416;2023-08-06T07:12:59;92583.88;;;22.29;82.98
33151;BME280;19508;42.578;23.416;2023-08-06T07:15:25;92586.25;;;21.99;83.67
33151;BME280;19508;42.578;23.416;2023-08-06T07:17:51;92584.84;;;21.89;85.30
33151;BME280;19508;42.578;23.416;2023-08-06T07:20:16;92569.16;;;22.37;86.94
33151;BME280;19508;42.578;23.416;2023-08-06T07:22:42;92578.88;;;23.24;83.74
33151;BME280;19508;42.578;23.416;2023-08-06T07:25:07;92585.78;;;23.56;78.61
33151;BME280;19508;42.578;23.416;2023-08-06T07:27:33;92577.13;;;23.97;75.24
33151;BME280;19508;42.578;23.416;2023-08-06T07:29:58;92566.97;;;24.24;75.16
33151;BME280;19508;42.578;23.416;2023-08-06T07:32:24;92584.13;;;24.17;71.40
33151;BME280;19508;42.578;23.416;2023-08-06T07:34:50;92569.97;;;24.15;70.63
33151;BME280;19508;42.578;23.416;2023-08-06T07:37:16;92583.66;;;24.87;69.37
33151;BME280;19508;42.578;23.416;2023-08-06T07:39:41;92582.06;;;24.86;68.94
33151;BME280;19508;42.578;23.416;2023-08-06T07:42:08;92591.25;;;25.24;65.75
33151;BME280;19508;42.578;23.416;2023-08-06T07:44:33;92578.00;;;25.70;64.62
33151;BME280;19508;42.578;23.416;2023-08-06T07:46:58;92587.94;;;26.15;64.06
33151;BME280;19508;42.578;23.416;2023-08-06T07:49:24;92577.94;;;26.41;62.83
33151;BME280;19508;42.578;23.416;2023-08-06T07:51:49;92581.22;;;26.64;63.23
33151;BME280;19508;42.578;23.416;2023-08-06T07:54:17;92573.69;;;27.13;61.22
33151;BME280;19508;42.578;23.416;2023-08-06T07:56:42;92561.31;;;26.92;59.05
33151;BME280;19508;42.578;23.416;2023-08-06T07:59:08;92564.59;;;27.16;55.63
33151;BME280;19508;42.578;23.416;2023-08-06T08:01:34;92553.03;;;26.92;57.80
33151;BME280;19508;42.578;23.416;2023-08-06T08:03:59;92550.94;;;27.55;60.32
33151;BME280;19508;42.578;23.416;2023-08-06T08:06:25;92547.31;;;26.60;52.92
33151;BME280;19508;42.578;23.416;2023-08-06T08:08:50;92556.16;;;26.91;53.20
33151;BME280;19508;42.578;23.416;2023-08-06T08:11:17;92551.53;;;27.06;54.09
33151;BME280;19508;42.578;23.416;2023-08-06T08:13:43;92543.88;;;27.61;56.56
33151;BME280;19508;42.578;23.416;2023-08-06T08:16:09;92558.53;;;27.72;48.54
33151;BME280;19508;42.578;23.416;2023-08-06T08:18:35;92553.78;;;27.73;48.58
33151;BME280;19508;42.578;23.416;2023-08-06T08:21:00;92557.75;;;27.79;49.42
33151;BME280;19508;42.578;23.416;2023-08-06T08:23:26;92561.31;;;27.79;47.59
33151;BME280;19508;42.578;23.416;2023-08-06T08:25:51;92554.22;;;27.78;49.02
33151;BME280;19508;42.578;23.416;2023-08-06T08:28:17;92555.84;;;28.15;48.88
33151;BME280;19508;42.578;23.416;2023-08-06T08:30:42;92561.38;;;28.22;47.93
33151;BME280;19508;42.578;23.416;2023-08-06T08:33:08;92560.56;;;28.18;48.40
33151;BME280;19508;42.578;23.416;2023-08-06T08:35:34;92547.19;;;28.31;46.60
33151;BME280;19508;42.578;23.416;2023-08-06T08:37:59;92562.09;;;27.69;48.83
33151;BME280;19508;42.578;23.416;2023-08-06T08:40:30;92554.91;;;27.65;49.28
33151;BME280;19508;42.578;23.416;2023-08-06T08:42:57;92557.38;;;27.91;49.19
33151;BME280;19508;42.578;23.416;2023-08-06T08:45:26;92540.41;;;28.03;47.56
33151;BME280;19508;42.578;23.416;2023-08-06T08:47:53;92556.53;;;27.76;47.66
33151;BME280;19508;42.578;23.416;2023-08-06T08:50:19;92540.03;;;28.12;49.11
33151;BME280;19508;42.578;23.416;2023-08-06T08:52:46;92540.06;;;28.33;46.20
33151;BME280;19508;42.578;23.416;2023-08-06T08:55:15;92538.03;;;28.16;44.71
33151;BME280;19508;42.578;23.416;2023-08-06T08:57:41;92542.78;;;28.16;45.07
33151;BME280;19508;42.578;23.416;2023-08-06T09:00:07;92542.81;;;28.33;45.20
33151;BME280;19508;42.578;23.416;2023-08-06T09:02:33;92543.16;;;28.28;44.68
33151;BME280;19508;42.578;23.416;2023-08-06T09:05:01;92528.19;;;28.33;45.16
33151;BME280;19508;42.578;23.416;2023-08-06T09:07:29;92523.06;;;28.38;44.29
33151;BME280;19508;42.578;23.416;2023-08-06T09:09:58;92524.22;;;28.66;43.63
33151;BME280;19508;42.578;23.416;2023-08-06T09:12:27;92512.75;;;28.35;47.43
33151;BME280;19508;42.578;23.416;2023-08-06T09:14:53;92519.88;;;28.04;43.27
33151;BME280;19508;42.578;23.416;2023-08-06T09:17:19;92524.97;;;27.77;43.61
33151;BME280;19508;42.578;23.416;2023-08-06T09:19:46;92509.97;;;28.07;44.79
33151;BME280;19508;42.578;23.416;2023-08-06T09:22:13;92509.19;;;27.96;45.31
33151;BME280;19508;42.578;23.416;2023-08-06T09:24:43;92512.63;;;27.50;45.44
33151;BME280;19508;42.578;23.416;2023-08-06T09:27:12;92525.75;;;27.81;44.85
33151;BME280;19508;42.578;23.416;2023-08-06T09:29:42;92504.44;;;28.28;44.53
33151;BME280;19508;42.578;23.416;2023-08-06T09:32:08;92509.97;;;28.25;44.73
33151;BME280;19508;42.578;23.416;2023-08-06T09:34:33;92503.31;;;28.29;45.31
33151;BME280;19508;42.578;23.416;2023-08-06T09:36:59;92505.97;;;28.83;42.82
33151;BME280;19508;42.578;23.416;2023-08-06T09:39:29;92503.59;;;28.96;44.58
33151;BME280;19508;42.578;23.416;2023-08-06T09:41:59;92499.66;;;28.68;41.79
33151;BME280;19508;42.578;23.416;2023-08-06T09:44:29;92493.28;;;28.85;40.35
33151;BME280;19508;42.578;23.416;2023-08-06T09:46:56;92500.09;;;28.56;40.76
33151;BME280;19508;42.578;23.416;2023-08-06T09:49:40;92506.03;;;28.54;40.78
33151;BME280;19508;42.578;23.416;2023-08-06T09:52:12;92499.66;;;28.68;40.89
33151;BME280;19508;42.578;23.416;2023-08-06T09:54:38;92506.69;;;29.19;39.13
33151;BME280;19508;42.578;23.416;2023-08-06T09:57:03;92503.56;;;29.03;39.47
33151;BME280;19508;42.578;23.416;2023-08-06T09:59:30;92503.28;;;28.40;39.44
33151;BME280;19508;42.578;23.416;2023-08-06T10:01:57;92494.56;;;28.09;41.10
33151;BME280;19508;42.578;23.416;2023-08-06T10:04:23;92496.16;;;28.14;42.86
33151;BME280;19508;42.578;23.416;2023-08-06T10:06:49;92502.50;;;28.32;42.11
33151;BME280;19508;42.578;23.416;2023-08-06T10:09:14;92504.44;;;28.14;42.07
33151;BME280;19508;42.578;23.416;2023-08-06T10:11:40;92516.69;;;27.77;40.93
33151;BME280;19508;42.578;23.416;2023-08-06T10:14:11;92514.72;;;27.89;42.97
33151;BME280;19508;42.578;23.416;2023-08-06T10:16:38;92524.84;;;27.35;42.85
33151;BME280;19508;42.578;23.416;2023-08-06T10:19:05;92527.06;;;27.04;43.30
33151;BME280;19508;42.578;23.416;2023-08-06T10:21:32;92509.50;;;26.71;43.55
33151;BME280;19508;42.578;23.416;2023-08-06T10:23:57;92519.75;;;26.71;44.41
33151;BME280;19508;42.578;23.416;2023-08-06T10:26:29;92523.44;;;26.93;44.13
33151;BME280;19508;42.578;23.416;2023-08-06T10:28:55;92528.53;;;26.84;46.39
33151;BME280;19508;42.578;23.416;2023-08-06T10:31:53;92540.94;;;26.49;44.60
33151;BME280;19508;42.578;23.416;2023-08-06T10:34:19;92537.63;;;26.33;45.71
33151;BME280;19508;42.578;23.416;2023-08-06T10:36:45;92545.34;;;26.13;45.64
33151;BME280;19508;42.578;23.416;2023-08-06T10:39:13;92548.41;;;26.04;45.86
33151;BME280;19508;42.578;23.416;2023-08-06T10:41:42;92553.19;;;26.07;46.60
33151;BME280;19508;42.578;23.416;2023-08-06T10:44:11;92549.19;;;26.01;46.42
33151;BME280;19508;42.578;23.416;2023-08-06T10:46:37;92554.78;;;25.71;46.89
33151;BME280;19508;42.578;23.416;2023-08-06T10:49:04;92558.88;;;25.47;47.90
33151;BME280;19508;42.578;23.416;2023-08-06T10:51:30;92570.09;;;25.69;47.95
33151;BME280;19508;42.578;23.416;2023-08-06T10:53:55;92571.97;;;25.57;48.31
33151;BME280;19508;42.578;23.416;2023-08-06T10:56:24;92580.63;;;25.59;47.23
33151;BME280;19508;42.578;23.416;2023-08-06T10:58:56;92582.59;;;25.55;46.18
33151;BME280;19508;42.578;23.416;2023-08-06T11:01:28;92583.41;;;25.59;45.60
33151;BME280;19508;42.578;23.416;2023-08-06T11:03:54;92587.28;;;25.55;47.05
33151;BME280;19508;42.578;23.416;2023-08-06T11:06:21;92600.53;;;25.42;49.00
33151;BME280;19508;42.578;23.416;2023-08-06T11:08:49;92598.97;;;25.45;48.38
33151;BME280;19508;42.578;23.416;2023-08-06T11:11:15;92595.09;;;25.49;47.94
33151;BME280;19508;42.578;23.416;2023-08-06T11:13:48;92596.41;;;25.63;48.39
33151;BME280;19508;42.578;23.416;2023-08-06T11:16:15;92597.19;;;25.97;47.81
33151;BME280;19508;42.578;23.416;2023-08-06T11:18:41;92587.22;;;26.26;47.62
33151;BME280;19508;42.578;23.416;2023-08-06T11:21:10;92591.16;;;26.25;46.81
33151;BME280;19508;42.578;23.416;2023-08-06T11:23:36;92591.88;;;26.66;46.39
33151;BME280;19508;42.578;23.416;2023-08-06T11:26:02;92590.06;;;26.88;46.78
33151;BME280;19508;42.578;23.416;2023-08-06T11:28:28;92597.41;;;27.24;44.07
33151;BME280;19508;42.578;23.416;2023-08-06T11:30:53;92590.69;;;27.25;44.76
33151;BME280;19508;42.578;23.416;2023-08-06T11:33:27;92587.75;;;26.93;43.96
33151;BME280;19508;42.578;23.416;2023-08-06T11:35:55;92584.56;;;26.88;46.20
33151;BME280;19508;42.578;23.416;2023-08-06T11:38:21;92581.00;;;26.91;45.40
33151;BME280;19508;42.578;23.416;2023-08-06T11:40:47;92584.72;;;27.09;45.58
33151;BME280;19508;42.578;23.416;2023-08-06T11:43:13;92594.25;;;27.22;47.03
33151;BME280;19508;42.578;23.416;2023-08-06T11:45:39;92593.81;;;27.13;45.69
33151;BME280;19508;42.578;23.416;2023-08-06T11:48:05;92584.81;;;27.27;46.23
33151;BME280;19508;42.578;23.416;2023-08-06T11:50:31;92583.41;;;27.76;44.62
33151;BME280;19508;42.578;23.416;2023-08-06T11:52:58;92586.06;;;27.51;42.04
33151;BME280;19508;42.578;23.416;2023-08-06T11:55:24;92584.16;;;27.66;43.60
33151;BME280;19508;42.578;23.416;2023-08-06T11:57:51;92593.72;;;27.90;42.76
33151;BME280;19508;42.578;23.416;2023-08-06T12:00:17;92583.88;;;27.99;41.12
33151;BME280;19508;42.578;23.416;2023-08-06T12:02:45;92584.91;;;27.59;43.98
33151;BME280;19508;42.578;23.416;2023-08-06T12:05:15;92582.66;;;27.82;43.36
33151;BME280;19508;42.578;23.416;2023-08-06T12:07:43;92582.63;;;27.72;43.20
33151;BME280;19508;42.578;23.416;2023-08-06T12:10:09;92589.38;;;27.02;44.34
33151;BME280;19508;42.578;23.416;2023-08-06T12:12:35;92595.47;;;26.66;44.48
33151;BME280;19508;42.578;23.416;2023-08-06T12:15:01;92590.97;;;26.03;46.43
33151;BME280;19508;42.578;23.416;2023-08-06T12:17:27;92585.16;;;26.60;47.67
33151;BME280;19508;42.578;23.416;2023-08-06T12:19:52;92574.44;;;27.06;44.22
33151;BME280;19508;42.578;23.416;2023-08-06T12:22:18;92570.47;;;27.07;43.62
33151;BME280;19508;42.578;23.416;2023-08-06T12:24:44;92576.63;;;26.83;44.45
33151;BME280;19508;42.578;23.416;2023-08-06T12:27:11;92569.22;;;26.39;45.78
33151;BME280;19508;42.578;23.416;2023-08-06T12:29:44;92582.69;;;26.48;46.25
33151;BME280;19508;42.578;23.416;2023-08-06T12:32:10;92587.97;;;26.23;46.00
33151;BME280;19508;42.578;23.416;2023-08-06T12:34:38;92593.78;;;26.55;46.50
33151;BME280;19508;42.578;23.416;2023-08-06T12:37:03;92602.19;;;26.73;46.66
33151;BME280;19508;42.578;23.416;2023-08-06T12:39:29;92600.28;;;26.80;48.20
33151;BME280;19508;42.578;23.416;2023-08-06T12:41:55;92601.41;;;26.68;48.31
33151;BME280;19508;42.578;23.416;2023-08-06T12:44:22;92593.16;;;26.76;47.21
33151;BME280;19508;42.578;23.416;2023-08-06T12:46:48;92599.38;;;26.62;50.21
33151;BME280;19508;42.578;23.416;2023-08-06T12:49:13;92593.00;;;26.54;46.96
33151;BME280;19508;42.578;23.416;2023-08-06T12:51:38;92590.75;;;26.74;47.59
33151;BME280;19508;42.578;23.416;2023-08-06T12:54:04;92577.75;;;26.75;49.54
33151;BME280;19508;42.578;23.416;2023-08-06T12:56:29;92584.84;;;26.72;49.51
33151;BME280;19508;42.578;23.416;2023-08-06T12:58:55;92575.06;;;26.85;50.10
33151;BME280;19508;42.578;23.416;2023-08-06T13:01:20;92582.63;;;26.95;49.63
33151;BME280;19508;42.578;23.416;2023-08-06T13:03:45;92577.63;;;27.12;48.18
33151;BME280;19508;42.578;23.416;2023-08-06T13:06:11;92575.94;;;27.00;47.61
33151;BME280;19508;42.578;23.416;2023-08-06T13:08:37;92584.16;;;26.89;49.49
33151;BME280;19508;42.578;23.416;2023-08-06T13:11:03;92575.25;;;27.10;46.92
33151;BME280;19508;42.578;23.416;2023-08-06T13:13:28;92574.34;;;26.95;46.40
33151;BME280;19508;42.578;23.416;2023-08-06T13:15:54;92567.34;;;27.12;46.62
33151;BME280;19508;42.578;23.416;2023-08-06T13:18:20;92569.72;;;27.17;48.19
33151;BME280;19508;42.578;23.416;2023-08-06T13:20:45;92576.91;;;27.29;47.92
33151;BME280;19508;42.578;23.416;2023-08-06T13:23:12;92579.94;;;27.06;46.08
33151;BME280;19508;42.578;23.416;2023-08-06T13:25:40;92574.44;;;27.06;45.97
33151;BME280;19508;42.578;23.416;2023-08-06T13:28:06;92580.06;;;27.27;46.89
33151;BME280;19508;42.578;23.416;2023-08-06T13:30:31;92587.16;;;27.29;47.21
33151;BME280;19508;42.578;23.416;2023-08-06T13:32:57;92585.38;;;26.92;47.33